sensor_id;sensor_type;location;lat;lon;timestamp;pressure;altitude;pressure_sealevel;temperature;humidity
46534;BME280;32260;52.008;4.752;2023-03-04T00:02:02;102834.34;;;8.16;57.46
46534;BME280;32260;52.008;4.752;2023-03-04T00:04:29;102833.41;;;8.14;57.39
46534;BME280;32260;52.008;4.752;2023-03-04T00:06:55;102836.94;;;8.14;57.53
46534;BME280;32260;52.008;4.752;2023-03-04T00:09:21;102832.59;;;8.16;57.64
46534;BME280;32260;52.008;4.752;2023-03-04T00:11:47;102826.41;;;8.16;57.43
46534;BME280;32260;52.008;4.752;2023-03-04T00:14:13;102830.72;;;8.12;57.77
46534;BME280;32260;52.008;4.752;2023-03-04T00:16:39;102829.91;;;8.15;57.13
46534;BME280;32260;52.008;4.752;2023-03-04T00:19:05;102832.53;;;8.15;57.28
46534;BME280;32260;52.008;4.752;2023-03-04T00:21:32;102833.44;;;8.15;57.85
46534;BME280;32260;52.008;4.752;2023-03-04T00:23:58;102833.41;;;8.14;57.00
46534;BME280;32260;52.008;4.752;2023-03-04T00:26:24;102835.25;;;8.16;56.90
46534;BME280;32260;52.008;4.752;2023-03-04T00:28:51;102818.47;;;8.14;57.39
46534;BME280;32260;52.008;4.752;2023-03-04T00:31:17;102828.03;;;8.09;57.69
46534;BME280;32260;52.008;4.752;2023-03-04T00:33:43;102823.66;;;8.11;57.73
46534;BME280;32260;52.008;4.752;2023-03-04T00:36:09;102828.88;;;8.08;57.80
46534;BME280;32260;52.008;4.752;2023-03-04T00:38:36;102833.31;;;8.09;57.76
46534;BME280;32260;52.008;4.752;2023-03-04T00:41:02;102823.59;;;8.08;57.62
46534;BME280;32260;52.008;4.752;2023-03-04T00:43:28;102826.28;;;8.09;58.00
46534;BME280;32260;52.008;4.752;2023-03-04T00:45:54;102828.00;;;8.07;58.06
46534;BME280;32260;52.008;4.752;2023-03-04T00:48:21;102828.84;;;8.06;58.05
46534;BME280;32260;52.008;4.752;2023-03-04T00:50:47;102829.63;;;8.02;57.75
46534;BME280;32260;52.008;4.752;2023-03-04T00:53:13;102826.97;;;8.02;57.26
46534;BME280;32260;52.008;4.752;2023-03-04T00:55:40;102826.03;;;7.99;57.76
46534;BME280;32260;52.008;4.752;2023-03-04T00:58:06;102829.72;;;8.05;57.12
46534;BME280;32260;52.008;4.752;2023-03-04T01:00:32;102829.56;;;7.99;57.28
46534;BME280;32260;52.008;4.752;2023-03-04T01:02:58;102825.28;;;8.04;57.55
46534;BME280;32260;52.008;4.752;2023-03-04T01:05:24;102820.84;;;8.03;58.02
46534;BME280;32260;52.008;4.752;2023-03-04T01:07:50;102821.00;;;8.09;57.75
46534;BME280;32260;52.008;4.752;2023-03-04T01:10:17;102828.84;;;8.06;57.99
46534;BME280;32260;52.008;4.752;2023-03-04T01:12:44;102821.84;;;8.08;57.42
46534;BME280;32260;52.008;4.752;2023-03-04T01:15:12;102821.84;;;8.08;58.28
46534;BME280;32260;52.008;4.752;2023-03-04T01:17:38;102822.84;;;8.14;58.05
46534;BME280;32260;52.008;4.752;2023-03-04T01:20:06;102823.59;;;8.06;58.40
46534;BME280;32260;52.008;4.752;2023-03-04T01:22:33;102823.72;;;8.13;58.32
46534;BME280;32260;52.008;4.752;2023-03-04T01:24:59;102821.94;;;8.12;58.31
46534;BME280;32260;52.008;4.752;2023-03-04T01:27:25;102804.34;;;8.14;57.81
46534;BME280;32260;52.008;4.752;2023-03-04T01:29:51;102821.06;;;8.13;58.22
46534;BME280;32260;52.008;4.752;2023-03-04T01:32:17;102811.41;;;8.13;58.58
46534;BME280;32260;52.008;4.752;2023-03-04T01:34:44;102806.81;;;8.04;57.73
46534;BME280;32260;52.008;4.752;2023-03-04T01:37:11;102801.53;;;8.04;58.10
46534;BME280;32260;52.008;4.752;2023-03-04T01:39:42;102800.66;;;8.05;58.48
46534;BME280;32260;52.008;4.752;2023-03-04T01:42:17;102792.78;;;8.07;58.17
46534;BME280;32260;52.008;4.752;2023-03-04T01:44:44;102790.97;;;8.04;57.74
46534;BME280;32260;52.008;4.752;2023-03-04T01:47:12;102798.84;;;8.01;57.64
46534;BME280;32260;52.008;4.752;2023-03-04T01:49:38;102791.78;;;8.02;57.88
46534;BME280;32260;52.008;4.752;2023-03-04T01:52:08;102786.50;;;8.02;58.25
46534;BME280;32260;52.008;4.752;2023-03-04T01:54:35;102782.09;;;8.02;57.78
46534;BME280;32260;52.008;4.752;2023-03-04T01:57:01;102785.78;;;8.07;58.02
46534;BME280;32260;52.008;4.752;2023-03-04T01:59:30;102777.88;;;8.09;58.04
46534;BME280;32260;52.008;4.752;2023-03-04T02:01:59;102780.50;;;8.07;57.59
46534;BME280;32260;52.008;4.752;2023-03-04T02:04:28;102768.09;;;8.05;56.93
46534;BME280;32260;52.008;4.752;2023-03-04T02:06:57;102769.94;;;8.07;57.59
46534;BME280;32260;52.008;4.752;2023-03-04T02:09:25;102760.22;;;8.06;57.50
46534;BME280;32260;52.008;4.752;2023-03-04T02:11:52;102768.16;;;8.08;57.46
46534;BME280;32260;52.008;4.752;2023-03-04T02:14:19;102761.19;;;8.12;56.95
46534;BME280;32260;52.008;4.752;2023-03-04T02:16:46;102751.47;;;8.09;57.10
46534;BME280;32260;52.008;4.752;2023-03-04T02:19:26;102753.28;;;8.12;57.00
46534;BME280;32260;52.008;4.752;2023-03-04T02:21:55;102750.56;;;8.08;57.00
46534;BME280;32260;52.008;4.752;2023-03-04T02:24:38;102752.44;;;8.14;57.49
46534;BME280;32260;52.008;4.752;2023-03-04T02:27:05;102748.84;;;8.10;57.20
46534;BME280;32260;52.008;4.752;2023-03-04T02:29:32;102746.25;;;8.12;57.66
46534;BME280;32260;52.008;4.752;2023-03-04T02:31:58;102745.22;;;8.05;57.75
46534;BME280;32260;52.008;4.752;2023-03-04T02:34:29;102741.75;;;8.08;57.61
46534;BME280;32260;52.008;4.752;2023-03-04T02:36:57;102738.16;;;8.04;57.40
46534;BME280;32260;52.008;4.752;2023-03-04T02:39:44;102733.06;;;8.14;57.58
46534;BME280;32260;52.008;4.752;2023-03-04T02:42:11;102730.28;;;8.06;57.73
46534;BME280;32260;52.008;4.752;2023-03-04T02:44:41;102731.09;;;8.03;58.04
46534;BME280;32260;52.008;4.752;2023-03-04T02:47:10;102732.00;;;8.04;57.69
46534;BME280;32260;52.008;4.752;2023-03-04T02:49:39;102727.59;;;8.04;57.69
46534;BME280;32260;52.008;4.752;2023-03-04T02:52:09;102729.41;;;8.07;57.63
46534;BME280;32260;52.008;4.752;2023-03-04T02:54:38;102740.91;;;8.09;58.19
46534;BME280;32260;52.008;4.752;2023-03-04T02:57:07;102724.25;;;8.12;58.13
46534;BME280;32260;52.008;4.752;2023-03-04T02:59:35;102724.16;;;8.08;57.93
46534;BME280;32260;52.008;4.752;2023-03-04T03:02:01;102727.72;;;8.10;58.16
46534;BME280;32260;52.008;4.752;2023-03-04T03:04:27;102726.03;;;8.13;58.43
46534;BME280;32260;52.008;4.752;2023-03-04T03:06:54;102723.41;;;8.14;57.95
46534;BME280;32260;52.008;4.752;2023-03-04T03:09:20;102726.91;;;8.13;58.02
46534;BME280;32260;52.008;4.752;2023-03-04T03:11:47;102721.63;;;8.13;57.82
46534;BME280;32260;52.008;4.752;2023-03-04T03:14:13;102722.44;;;8.10;58.44
46534;BME280;32260;52.008;4.752;2023-03-04T03:16:39;102723.31;;;8.11;57.89
46534;BME280;32260;52.008;4.752;2023-03-04T03:19:05;102717.13;;;8.07;58.02
46534;BME280;32260;52.008;4.752;2023-03-04T03:21:31;102721.50;;;8.07;58.67
46534;BME280;32260;52.008;4.752;2023-03-04T03:23:57;102720.63;;;8.06;58.40
46534;BME280;32260;52.008;4.752;2023-03-04T03:26:24;102722.31;;;8.04;58.25
46534;BME280;32260;52.008;4.752;2023-03-04T03:28:50;102719.75;;;8.07;58.35
46534;BME280;32260;52.008;4.752;2023-03-04T03:31:16;102713.56;;;8.05;58.51
46534;BME280;32260;52.008;4.752;2023-03-04T03:33:42;102714.41;;;8.04;58.16
46534;BME280;32260;52.008;4.752;2023-03-04T03:36:08;102716.16;;;8.04;58.20
46534;BME280;32260;52.008;4.752;2023-03-04T03:38:34;102717.91;;;8.03;57.64
46534;BME280;32260;52.008;4.752;2023-03-04T03:41:00;102717.00;;;8.01;58.07
46534;BME280;32260;52.008;4.752;2023-03-04T03:43:27;102711.75;;;8.04;57.84
46534;BME280;32260;52.008;4.752;2023-03-04T03:45:53;102716.09;;;8.01;58.26
46534;BME280;32260;52.008;4.752;2023-03-04T03:48:19;102717.03;;;8.04;57.68
46534;BME280;32260;52.008;4.752;2023-03-04T03:50:45;102720.53;;;8.03;57.84
46534;BME280;32260;52.008;4.752;2023-03-04T03:53:11;102719.69;;;8.04;58.36
46534;BME280;32260;52.008;4.752;2023-03-04T03:55:37;102715.13;;;7.97;58.22
46534;BME280;32260;52.008;4.752;2023-03-04T03:58:04;102720.53;;;8.03;58.56
46534;BME280;32260;52.008;4.752;2023-03-04T04:00:30;102716.16;;;8.04;58.59
46534;BME280;32260;52.008;4.752;2023-03-04T04:02:57;102724.94;;;8.03;58.05
46534;BME280;32260;52.008;4.752;2023-03-04T04:05:24;102717.91;;;8.05;58.54
46534;BME280;32260;52.008;4.752;2023-03-04T04:07:51;102718.84;;;8.05;57.86
46534;BME280;32260;52.008;4.752;2023-03-04T04:10:17;102717.13;;;8.07;58.36
46534;BME280;32260;52.008;4.752;2023-03-04T04:12:44;102723.28;;;8.08;57.84
46534;BME280;32260;52.008;4.752;2023-03-04T04:15:11;102725.06;;;8.09;58.38
46534;BME280;32260;52.008;4.752;2023-03-04T04:17:37;102724.25;;;8.12;58.43
46534;BME280;32260;52.008;4.752;2023-03-04T04:20:04;102722.44;;;8.10;57.97
46534;BME280;32260;52.008;4.752;2023-03-04T04:22:30;102721.47;;;8.05;58.06
46534;BME280;32260;52.008;4.752;2023-03-04T04:24:57;102724.03;;;8.02;58.29
46534;BME280;32260;52.008;4.752;2023-03-04T04:27:23;102718.69;;;7.99;58.36
46534;BME280;32260;52.008;4.752;2023-03-04T04:29:49;102718.72;;;8.01;58.05
46534;BME280;32260;52.008;4.752;2023-03-04T04:32:15;102717.69;;;7.92;58.50
46534;BME280;32260;52.008;4.752;2023-03-04T04:34:41;102718.63;;;7.96;58.43
46534;BME280;32260;52.008;4.752;2023-03-04T04:37:07;102725.78;;;8.00;58.01
46534;BME280;32260;52.008;4.752;2023-03-04T04:39:33;102718.69;;;7.99;58.70
46534;BME280;32260;52.008;4.752;2023-03-04T04:41:59;102721.34;;;7.99;58.38
46534;BME280;32260;52.008;4.752;2023-03-04T04:44:25;102725.81;;;8.03;58.53
46534;BME280;32260;52.008;4.752;2023-03-04T04:46:52;102720.50;;;8.00;58.75
46534;BME280;32260;52.008;4.752;2023-03-04T04:49:18;102728.44;;;8.02;58.76
46534;BME280;32260;52.008;4.752;2023-03-04T04:51:45;102729.25;;;7.99;58.22
46534;BME280;32260;52.008;4.752;2023-03-04T04:54:13;102730.19;;;8.01;58.18
46534;BME280;32260;52.008;4.752;2023-03-04T04:56:39;102724.91;;;8.01;58.21
46534;BME280;32260;52.008;4.752;2023-03-04T04:59:05;102726.53;;;7.96;58.76
46534;BME280;32260;52.008;4.752;2023-03-04T05:01:33;102725.78;;;8.00;58.23
46534;BME280;32260;52.008;4.752;2023-03-04T05:04:00;102725.78;;;8.00;58.97
46534;BME280;32260;52.008;4.752;2023-03-04T05:06:27;102729.25;;;7.99;58.28
46534;BME280;32260;52.008;4.752;2023-03-04T05:08:53;102719.53;;;7.97;58.24
46534;BME280;32260;52.008;4.752;2023-03-04T05:11:19;102726.50;;;7.94;58.42
46534;BME280;32260;52.008;4.752;2023-03-04T05:13:46;102727.47;;;7.98;57.97
46534;BME280;32260;52.008;4.752;2023-03-04T05:16:13;102731.78;;;7.94;58.31
46534;BME280;32260;52.008;4.752;2023-03-04T05:18:40;102727.47;;;7.98;57.97
46534;BME280;32260;52.008;4.752;2023-03-04T05:21:07;102724.69;;;7.92;57.72
46534;BME280;32260;52.008;4.752;2023-03-04T05:23:36;102722.16;;;7.95;58.13
46534;BME280;32260;52.008;4.752;2023-03-04T05:26:04;102730.91;;;7.94;58.21
46534;BME280;32260;52.008;4.752;2023-03-04T05:28:30;102729.19;;;7.96;57.88
46534;BME280;32260;52.008;4.752;2023-03-04T05:30:57;102730.97;;;7.97;58.03
46534;BME280;32260;52.008;4.752;2023-03-04T05:33:23;102723.00;;;7.94;57.68
46534;BME280;32260;52.008;4.752;2023-03-04T05:35:49;102722.06;;;7.92;57.98
46534;BME280;32260;52.008;4.752;2023-03-04T05:38:18;102722.97;;;7.92;58.50
46534;BME280;32260;52.008;4.752;2023-03-04T05:40:45;102732.72;;;7.95;57.88
46534;BME280;32260;52.008;4.752;2023-03-04T05:43:12;102728.31;;;7.96;58.61
46534;BME280;32260;52.008;4.752;2023-03-04T05:45:39;102728.28;;;7.94;58.03
46534;BME280;32260;52.008;4.752;2023-03-04T05:48:06;102723.84;;;7.93;58.88
46534;BME280;32260;52.008;4.752;2023-03-04T05:50:33;102725.56;;;7.91;58.68
46534;BME280;32260;52.008;4.752;2023-03-04T05:52:59;102724.59;;;7.87;58.81
46534;BME280;32260;52.008;4.752;2023-03-04T05:55:26;102725.44;;;7.85;58.98
46534;BME280;32260;52.008;4.752;2023-03-04T05:57:54;102728.88;;;7.81;59.81
46534;BME280;32260;52.008;4.752;2023-03-04T06:00:20;102724.41;;;7.78;60.42
46534;BME280;32260;52.008;4.752;2023-03-04T06:02:46;102723.59;;;7.81;60.15
46534;BME280;32260;52.008;4.752;2023-03-04T06:05:14;102723.59;;;7.82;59.45
46534;BME280;32260;52.008;4.752;2023-03-04T06:07:41;102730.69;;;7.85;59.96
46534;BME280;32260;52.008;4.752;2023-03-04T06:10:10;102720.16;;;7.85;59.87
46534;BME280;32260;52.008;4.752;2023-03-04T06:12:36;102724.53;;;7.84;59.95
46534;BME280;32260;52.008;4.752;2023-03-04T06:15:03;102720.16;;;7.85;59.84
46534;BME280;32260;52.008;4.752;2023-03-04T06:17:31;102728.91;;;7.84;60.18
46534;BME280;32260;52.008;4.752;2023-03-04T06:19:57;102724.56;;;7.86;59.74
46534;BME280;32260;52.008;4.752;2023-03-04T06:22:23;102725.50;;;7.88;59.86
46534;BME280;32260;52.008;4.752;2023-03-04T06:24:49;102722.03;;;7.90;60.22
46534;BME280;32260;52.008;4.752;2023-03-04T06:27:15;102723.84;;;7.93;60.30
46534;BME280;32260;52.008;4.752;2023-03-04T06:29:42;102736.19;;;7.94;60.21
46534;BME280;32260;52.008;4.752;2023-03-04T06:32:08;102732.72;;;7.95;60.16
46534;BME280;32260;52.008;4.752;2023-03-04T06:34:34;102729.19;;;7.96;59.71
46534;BME280;32260;52.008;4.752;2023-03-04T06:37:01;102733.63;;;7.99;59.95
46534;BME280;32260;52.008;4.752;2023-03-04T06:39:27;102731.06;;;8.00;59.89
46534;BME280;32260;52.008;4.752;2023-03-04T06:41:53;102729.25;;;7.99;59.95
46534;BME280;32260;52.008;4.752;2023-03-04T06:44:19;102738.13;;;8.01;59.67
46534;BME280;32260;52.008;4.752;2023-03-04T06:46:45;102728.44;;;8.02;60.11
46534;BME280;32260;52.008;4.752;2023-03-04T06:49:11;102735.53;;;8.04;60.02
46534;BME280;32260;52.008;4.752;2023-03-04T06:51:37;102733.75;;;8.05;60.45
46534;BME280;32260;52.008;4.752;2023-03-04T06:54:03;102732.06;;;8.07;59.71
46534;BME280;32260;52.008;4.752;2023-03-04T06:56:29;102738.28;;;8.09;60.16
46534;BME280;32260;52.008;4.752;2023-03-04T06:58:58;102736.50;;;8.09;59.74
46534;BME280;32260;52.008;4.752;2023-03-04T07:01:26;102742.72;;;8.12;60.16
46534;BME280;32260;52.008;4.752;2023-03-04T07:03:54;102742.72;;;8.12;60.24
46534;BME280;32260;52.008;4.752;2023-03-04T07:06:23;102744.50;;;8.13;59.58
46534;BME280;32260;52.008;4.752;2023-03-04T07:08:50;102748.97;;;8.15;59.62
46534;BME280;32260;52.008;4.752;2023-03-04T07:11:17;102747.19;;;8.16;59.98
46534;BME280;32260;52.008;4.752;2023-03-04T07:13:43;102741.91;;;8.16;59.92
46534;BME280;32260;52.008;4.752;2023-03-04T07:16:17;102745.50;;;8.19;59.63
46534;BME280;32260;52.008;4.752;2023-03-04T07:18:44;102742.81;;;8.16;60.12
46534;BME280;32260;52.008;4.752;2023-03-04T07:21:10;102742.81;;;8.16;60.21
46534;BME280;32260;52.008;4.752;2023-03-04T07:23:37;102746.34;;;8.17;59.65
46534;BME280;32260;52.008;4.752;2023-03-04T07:26:04;102751.63;;;8.17;59.57
46534;BME280;32260;52.008;4.752;2023-03-04T07:28:31;102758.72;;;8.19;59.67
46534;BME280;32260;52.008;4.752;2023-03-04T07:31:06;102760.50;;;8.20;59.77
46534;BME280;32260;52.008;4.752;2023-03-04T07:33:33;102757.97;;;8.25;59.07
46534;BME280;32260;52.008;4.752;2023-03-04T07:35:59;102763.97;;;8.18;59.58
46534;BME280;32260;52.008;4.752;2023-03-04T07:38:25;102765.78;;;8.20;59.87
46534;BME280;32260;52.008;4.752;2023-03-04T07:40:57;102767.63;;;8.24;59.72
46534;BME280;32260;52.008;4.752;2023-03-04T07:43:23;102764.13;;;8.25;60.11
46534;BME280;32260;52.008;4.752;2023-03-04T07:45:50;102769.41;;;8.25;60.29
46534;BME280;32260;52.008;4.752;2023-03-04T07:48:18;102772.06;;;8.27;60.21
46534;BME280;32260;52.008;4.752;2023-03-04T07:50:44;102772.16;;;8.30;60.65
46534;BME280;32260;52.008;4.752;2023-03-04T07:53:10;102780.94;;;8.29;61.95
46534;BME280;32260;52.008;4.752;2023-03-04T07:55:37;102788.00;;;8.30;62.35
46534;BME280;32260;52.008;4.752;2023-03-04T07:58:03;102779.97;;;8.25;61.96
46534;BME280;32260;52.008;4.752;2023-03-04T08:00:29;102788.97;;;8.34;61.87
46534;BME280;32260;52.008;4.752;2023-03-04T08:02:55;102790.69;;;8.33;62.16
46534;BME280;32260;52.008;4.752;2023-03-04T08:05:21;102784.56;;;8.34;61.89
46534;BME280;32260;52.008;4.752;2023-03-04T08:07:47;102783.00;;;8.44;61.40
46534;BME280;32260;52.008;4.752;2023-03-04T08:10:13;102785.78;;;8.50;61.72
46534;BME280;32260;52.008;4.752;2023-03-04T08:12:40;102790.34;;;8.57;61.57
46534;BME280;32260;52.008;4.752;2023-03-04T08:15:06;102786.03;;;8.63;62.32
46534;BME280;32260;52.008;4.752;2023-03-04T08:17:33;102792.28;;;8.66;62.12
46534;BME280;32260;52.008;4.752;2023-03-04T08:19:59;102774.75;;;8.71;61.70
46534;BME280;32260;52.008;4.752;2023-03-04T08:22:25;102788.94;;;8.77;61.34
46534;BME280;32260;52.008;4.752;2023-03-04T08:24:51;102788.22;;;8.85;61.25
46534;BME280;32260;52.008;4.752;2023-03-04T08:27:17;102780.41;;;8.93;61.33
46534;BME280;32260;52.008;4.752;2023-03-04T08:29:43;102780.53;;;8.99;61.56
46534;BME280;32260;52.008;4.752;2023-03-04T08:32:09;102782.38;;;9.03;61.30
46534;BME280;32260;52.008;4.752;2023-03-04T08:34:38;102786.00;;;9.09;60.58
46534;BME280;32260;52.008;4.752;2023-03-04T08:37:05;102784.22;;;9.07;60.72
46534;BME280;32260;52.008;4.752;2023-03-04T08:39:33;102785.94;;;9.07;60.88
46534;BME280;32260;52.008;4.752;2023-03-04T08:42:02;102785.09;;;9.08;61.05
46534;BME280;32260;52.008;4.752;2023-03-04T08:44:29;102785.09;;;9.10;61.18
46534;BME280;32260;52.008;4.752;2023-03-04T08:46:55;102782.53;;;9.13;61.92
46534;BME280;32260;52.008;4.752;2023-03-04T08:49:21;102778.19;;;9.16;61.61
46534;BME280;32260;52.008;4.752;2023-03-04T08:51:47;102785.22;;;9.16;62.00
46534;BME280;32260;52.008;4.752;2023-03-04T08:54:13;102776.41;;;9.17;62.04
46534;BME280;32260;52.008;4.752;2023-03-04T08:56:40;102773.78;;;9.17;61.55
46534;BME280;32260;52.008;4.752;2023-03-04T08:59:06;102771.22;;;9.21;61.33
46534;BME280;32260;52.008;4.752;2023-03-04T09:01:32;102778.31;;;9.24;61.89
46534;BME280;32260;52.008;4.752;2023-03-04T09:03:58;102781.81;;;9.23;62.18
46534;BME280;32260;52.008;4.752;2023-03-04T09:06:24;102770.44;;;9.27;62.30
46534;BME280;32260;52.008;4.752;2023-03-04T09:08:50;102774.81;;;9.27;62.13
46534;BME280;32260;52.008;4.752;2023-03-04T09:11:17;102775.66;;;9.24;62.53
46534;BME280;32260;52.008;4.752;2023-03-04T09:13:43;102772.06;;;9.19;63.83
46534;BME280;32260;52.008;4.752;2023-03-04T09:16:11;102769.38;;;9.17;64.22
46534;BME280;32260;52.008;4.752;2023-03-04T09:18:38;102771.09;;;9.14;63.63
46534;BME280;32260;52.008;4.752;2023-03-04T09:21:05;102773.78;;;9.17;63.36
46534;BME280;32260;52.008;4.752;2023-03-04T09:23:31;102761.47;;;9.19;64.01
46534;BME280;32260;52.008;4.752;2023-03-04T09:25:57;102772.97;;;9.21;64.65
46534;BME280;32260;52.008;4.752;2023-03-04T09:28:23;102763.38;;;9.26;64.83
46534;BME280;32260;52.008;4.752;2023-03-04T09:30:49;102768.75;;;9.32;63.85
46534;BME280;32260;52.008;4.752;2023-03-04T09:33:15;102761.88;;;9.44;64.09
46534;BME280;32260;52.008;4.752;2023-03-04T09:35:42;102762.06;;;9.54;65.07
46534;BME280;32260;52.008;4.752;2023-03-04T09:38:08;102756.00;;;9.63;64.62
46534;BME280;32260;52.008;4.752;2023-03-04T09:40:45;102751.75;;;9.75;63.65
46534;BME280;32260;52.008;4.752;2023-03-04T09:43:17;102756.19;;;9.77;64.00
46534;BME280;32260;52.008;4.752;2023-03-04T09:45:49;102758.69;;;9.66;63.66
46534;BME280;32260;52.008;4.752;2023-03-04T09:48:20;102760.38;;;9.61;63.99
46534;BME280;32260;52.008;4.752;2023-03-04T09:51:03;102760.28;;;9.57;65.36
46534;BME280;32260;52.008;4.752;2023-03-04T09:53:46;102763.78;;;9.54;64.87
46534;BME280;32260;52.008;4.752;2023-03-04T09:56:14;102761.81;;;9.41;65.09
46534;BME280;32260;52.008;4.752;2023-03-04T09:59:06;102754.88;;;9.49;66.07
46534;BME280;32260;52.008;4.752;2023-03-04T10:01:41;102760.22;;;9.52;65.83
46534;BME280;32260;52.008;4.752;2023-03-04T10:06:55;102767.19;;;9.47;67.53
46534;BME280;32260;52.008;4.752;2023-03-04T10:12:03;102760.09;;;9.43;66.78
46534;BME280;32260;52.008;4.752;2023-03-04T10:14:37;102752.25;;;9.49;67.42
46534;BME280;32260;52.008;4.752;2023-03-04T10:22:28;102750.00;;;9.77;67.01
46534;BME280;32260;52.008;4.752;2023-03-04T10:24:58;102750.00;;;9.77;67.35
46534;BME280;32260;52.008;4.752;2023-03-04T10:27:26;102751.78;;;9.78;66.99
46534;BME280;32260;52.008;4.752;2023-03-04T10:29:55;102750.00;;;9.77;65.91
46534;BME280;32260;52.008;4.752;2023-03-04T10:32:22;102745.59;;;9.77;65.92
46534;BME280;32260;52.008;4.752;2023-03-04T10:34:48;102745.63;;;9.80;65.46
46534;BME280;32260;52.008;4.752;2023-03-04T10:37:15;102738.63;;;9.82;65.05
46534;BME280;32260;52.008;4.752;2023-03-04T10:39:43;102744.00;;;9.90;65.18
46534;BME280;32260;52.008;4.752;2023-03-04T10:44:58;102743.59;;;10.28;65.17
46534;BME280;32260;52.008;4.752;2023-03-04T10:47:28;102747.19;;;10.35;63.96
46534;BME280;32260;52.008;4.752;2023-03-04T10:49:58;102737.72;;;10.52;63.44
46534;BME280;32260;52.008;4.752;2023-03-04T10:55:05;102732.59;;;10.71;61.86
46534;BME280;32260;52.008;4.752;2023-03-04T10:57:41;102730.88;;;10.75;61.96
46534;BME280;32260;52.008;4.752;2023-03-04T11:00:28;102727.41;;;10.82;61.07
46534;BME280;32260;52.008;4.752;2023-03-04T11:03:30;102728.38;;;10.93;61.40
46534;BME280;32260;52.008;4.752;2023-03-04T11:06:10;102731.97;;;10.97;61.13
46534;BME280;32260;52.008;4.752;2023-03-04T11:08:40;102722.19;;;10.91;60.14
46534;BME280;32260;52.008;4.752;2023-03-04T11:11:37;102724.81;;;10.90;59.95
46534;BME280;32260;52.008;4.752;2023-03-04T11:14:20;102727.41;;;10.83;59.62
46534;BME280;32260;52.008;4.752;2023-03-04T11:16:58;102722.09;;;10.80;59.66
46534;BME280;32260;52.008;4.752;2023-03-04T11:19:34;102710.53;;;10.72;59.96
46534;BME280;32260;52.008;4.752;2023-03-04T11:22:04;102720.19;;;10.65;60.26
46534;BME280;32260;52.008;4.752;2023-03-04T11:24:33;102717.53;;;10.65;61.38
46534;BME280;32260;52.008;4.752;2023-03-04T11:29:47;102715.66;;;10.55;62.17
46534;BME280;32260;52.008;4.752;2023-03-04T11:32:21;102724.19;;;10.31;63.79
46534;BME280;32260;52.008;4.752;2023-03-04T11:37:30;102716.81;;;10.03;65.04
46534;BME280;32260;52.008;4.752;2023-03-04T11:40:23;102715.09;;;10.06;64.90
46534;BME280;32260;52.008;4.752;2023-03-04T11:43:18;102717.75;;;10.06;66.08
46534;BME280;32260;52.008;4.752;2023-03-04T11:51:06;102697.56;;;10.20;65.64
46534;BME280;32260;52.008;4.752;2023-03-04T11:56:41;102705.78;;;10.40;64.37
46534;BME280;32260;52.008;4.752;2023-03-04T12:02:19;102701.22;;;10.31;64.63
46534;BME280;32260;52.008;4.752;2023-03-04T12:07:47;102681.66;;;10.17;66.33
46534;BME280;32260;52.008;4.752;2023-03-04T12:10:24;102686.97;;;10.17;66.25
46534;BME280;32260;52.008;4.752;2023-03-04T12:21:58;102676.00;;;10.69;64.64
46534;BME280;32260;52.008;4.752;2023-03-04T12:32:56;102648.00;;;11.02;62.13
46534;BME280;32260;52.008;4.752;2023-03-04T12:38:28;102638.13;;;10.81;61.41
46534;BME280;32260;52.008;4.752;2023-03-04T12:50:30;102637.81;;;10.44;61.07
46534;BME280;32260;52.008;4.752;2023-03-04T12:52:25;102633.53;;;10.60;61.28
46534;BME280;32260;52.008;4.752;2023-03-04T12:54:59;102635.31;;;10.61;60.79
46534;BME280;32260;52.008;4.752;2023-03-04T12:57:28;102638.78;;;10.54;60.08
46534;BME280;32260;52.008;4.752;2023-03-04T13:01:24;102628.28;;;10.67;60.23
46534;BME280;32260;52.008;4.752;2023-03-04T13:03:26;102616.81;;;10.65;59.55
46534;BME280;32260;52.008;4.752;2023-03-04T13:06:09;102621.25;;;10.68;59.38
46534;BME280;32260;52.008;4.752;2023-03-04T13:16:42;102620.47;;;10.86;56.58
46534;BME280;32260;52.008;4.752;2023-03-04T13:25:34;102608.09;;;10.85;55.16
46534;BME280;32260;52.008;4.752;2023-03-04T13:30:41;102604.41;;;10.64;56.24
46534;BME280;32260;52.008;4.752;2023-03-04T13:41:31;102596.97;;;11.51;53.23
46534;BME280;32260;52.008;4.752;2023-03-04T13:44:34;102590.78;;;11.52;53.78
46534;BME280;32260;52.008;4.752;2023-03-04T13:47:20;102591.59;;;11.36;52.84
46534;BME280;32260;52.008;4.752;2023-03-04T13:49:47;102595.06;;;11.24;52.84
46534;BME280;32260;52.008;4.752;2023-03-04T13:52:37;102585.38;;;11.27;52.77
46534;BME280;32260;52.008;4.752;2023-03-04T13:55:33;102595.06;;;11.22;52.46
46534;BME280;32260;52.008;4.752;2023-03-04T13:58:02;102592.34;;;11.08;52.64
46534;BME280;32260;52.008;4.752;2023-03-04T14:00:46;102591.44;;;11.08;53.11
46534;BME280;32260;52.008;4.752;2023-03-04T14:03:19;102587.88;;;11.03;53.09
46534;BME280;32260;52.008;4.752;2023-03-04T14:05:45;102584.34;;;11.00;52.63
46534;BME280;32260;52.008;4.752;2023-03-04T14:08:20;102579.13;;;11.14;53.60
46534;BME280;32260;52.008;4.752;2023-03-04T14:10:54;102581.00;;;11.36;53.20
46534;BME280;32260;52.008;4.752;2023-03-04T14:13:20;102578.38;;;11.51;52.43
46534;BME280;32260;52.008;4.752;2023-03-04T14:15:55;102570.47;;;11.62;51.37
46534;BME280;32260;52.008;4.752;2023-03-04T14:18:22;102567.78;;;11.57;52.23
46534;BME280;32260;52.008;4.752;2023-03-04T14:20:50;102574.00;;;11.52;51.42
46534;BME280;32260;52.008;4.752;2023-03-04T14:23:36;102570.47;;;11.54;51.14
46534;BME280;32260;52.008;4.752;2023-03-04T14:26:05;102576.59;;;11.44;52.08
46534;BME280;32260;52.008;4.752;2023-03-04T14:28:31;102573.00;;;11.32;52.35
46534;BME280;32260;52.008;4.752;2023-03-04T14:30:58;102564.13;;;11.29;52.94
46534;BME280;32260;52.008;4.752;2023-03-04T14:33:27;102565.84;;;11.14;52.95
46534;BME280;32260;52.008;4.752;2023-03-04T14:35:55;102567.53;;;10.98;52.87
46534;BME280;32260;52.008;4.752;2023-03-04T14:38:28;102566.66;;;10.99;52.95